Home > Products > Valid Products > MTR

000
SAUS44 KLCH 062257
MTRP92
METAR KP92 062253Z AUTO 15004KT 12/00 A3024 RMK AO1 SLP239 T01170000





000
SAUS44 KLCH 062157
MTRP92
METAR KP92 062153Z AUTO 13003KT 12/M01 A3025 RMK AO1 SLP242
T01171011





000
SAUS44 KLCH 062056
MTRP92
METAR KP92 062053Z AUTO VRB04KT 11/01 A3024 RMK AO1 SLP238 T01110011
58026





000
SAUS44 KLCH 061957
MTRP92
METAR KP92 061953Z AUTO 00000KT 11/01 A3026 RMK AO1 SLP248 T01110006





000
SAUS44 KLCH 061859
MTRP92
METAR KP92 061853Z AUTO 15003KT 12/M02 A3030 RMK AO1 SLP259
T01171017





000
SAUS44 KLCH 061756
MTRP92
METAR KP92 061753Z AUTO VRB04KT 12/M01 A3031 RMK AO1 SLP264
T01221006 10122 20044 58008





000
SAUS44 KLCH 061756
MTRP92
METAR KP92 061753Z AUTO VRB04KT 12/M01 A3031 RMK AO1 SLP264
T01221006 10122 20044 58008





000
SAUS44 KLCH 061656
MTRP92
METAR KP92 061653Z AUTO 07007KT 12/00 A3032 RMK AO1 SLP266 T01170000





000
SAUS44 KLCH 061656
MTRP92
METAR KP92 061653Z AUTO 07007KT 12/00 A3032 RMK AO1 SLP266 T01170000





000
SAUS44 KLCH 061556
MTRP92
METAR KP92 061553Z AUTO VRB04KT 09/02 A3034 RMK AO1 SLP274 T00940017





000
SAUS44 KLCH 061556
MTRP92
METAR KP92 061553Z AUTO VRB04KT 09/02 A3034 RMK AO1 SLP274 T00940017





000
SAUS44 KLCH 061456
MTRP92
METAR KP92 061453Z AUTO 00000KT 08/02 A3034 RMK AO1 SLP272 T00830017
51012





000
SAUS44 KLCH 061358
MTRP92
METAR KP92 061353Z AUTO 00000KT 06/02 A3032 RMK AO1 SLP268 T00610022





000
SAUS44 KLCH 061256
MTRP92
METAR KP92 061253Z AUTO 00000KT 04/01 A3032 RMK AO1 SLP268 T00440006





000
SAUS44 KLCH 061156
MTRP92
METAR KP92 061153Z AUTO 00000KT 06/01 A3030 RMK AO1 SLP261 T00560011
10056 20033 56020





000
SAUS44 KLCH 061156
MTRP92
METAR KP92 061153Z AUTO 00000KT 06/01 A3030 RMK AO1 SLP261 T00560011
10056 20033 56020





000
SAUS44 KLCH 061056
MTRP92
METAR KP92 061053Z AUTO 00000KT 03/02 A3030 RMK AO1 SLP261 T00330022





000
SAUS44 KLCH 061056
MTRP92
METAR KP92 061053Z AUTO 00000KT 03/02 A3030 RMK AO1 SLP261 T00330022





000
SAUS44 KLCH 060956
MTRP92
METAR KP92 060953Z AUTO 07004KT 05/03 A3033 RMK AO1 SLP271 T00500033





000
SAUS44 KLCH 060856
MTRP92
METAR KP92 060853Z AUTO 00000KT 04/02 A3036 RMK AO1 SLP281 T00440022
58006





000
SAUS44 KLCH 060856
MTRP92
METAR KP92 060853Z AUTO 00000KT 04/02 A3036 RMK AO1 SLP281 T00440022
58006





000
SAUS44 KLCH 060756
MTRP92
METAR KP92 060753Z AUTO 00000KT 04/03 A3037 RMK AO1 SLP283 T00440028





000
SAUS44 KLCH 060657
MTRP92
METAR KP92 060653Z AUTO 00000KT 05/03 A3038 RMK AO1 SLP286 T00500028





000
SAUS44 KLCH 060657
MTRP92
METAR KP92 060653Z AUTO 00000KT 05/03 A3038 RMK AO1 SLP286 T00500028





000
SAUS44 KLCH 060556
MTRP92
METAR KP92 060553Z AUTO 00000KT 05/02 A3038 RMK AO1 SLP286 T00500022
10089 20050 401280028 50000





000
SAUS44 KLCH 060556
MTRP92
METAR KP92 060553Z AUTO 00000KT 05/02 A3038 RMK AO1 SLP286 T00500022
10089 20050 401280028 50000





000
SAUS44 KLCH 060456
MTRP92
METAR KP92 060453Z AUTO 00000KT 06/03 A3039 RMK AO1 SLP291 T00560033





000
SAUS44 KLCH 060356
MTRP92
METAR KP92 060353Z AUTO 00000KT 06/02 A3039 RMK AO1 SLP291 T00610017





000
SAUS44 KLCH 060258
MTRP92
METAR KP92 060253Z AUTO 00000KT 05/01 A3038 RMK AO1 SLP287 T00500011
50006





000
SAUS44 KLCH 060258
MTRP92
METAR KP92 060253Z AUTO 00000KT 05/01 A3038 RMK AO1 SLP287 T00500011
50006





000
SAUS44 KLCH 060156
MTRP92
METAR KP92 060153Z AUTO 00000KT 06/00 A3038 RMK AO1 SLP288 T00560000





000
SAUS44 KLCH 060156
MTRP92
METAR KP92 060153Z AUTO 00000KT 06/00 A3038 RMK AO1 SLP288 T00560000





000
SAUS44 KLCH 060057
MTRP92
METAR KP92 060053Z AUTO 00000KT 08/M01 A3036 RMK AO1 SLP281
T00781011





000
SAUS44 KLCH 060057
MTRP92
METAR KP92 060053Z AUTO 00000KT 08/M01 A3036 RMK AO1 SLP281
T00781011





000
SAUS44 KLCH 052358
MTRP92
METAR KP92 052353Z AUTO 00000KT 09/M01 A3036 RMK AO1 SLP281
T00891006 10128 20089 56010





000
SAUS44 KLCH 052358
MTRP92
METAR KP92 052353Z AUTO 00000KT 09/M01 A3036 RMK AO1 SLP281
T00891006 10128 20089 56010





000
SAUS44 KLCH 052256
MTRP92
METAR KP92 052253Z AUTO VRB03KT 12/M07 A3036 RMK AO1 SLP282
T01221067





000
SAUS44 KLCH 052256
MTRP92
METAR KP92 052253Z AUTO VRB03KT 12/M07 A3036 RMK AO1 SLP282
T01221067





000
SAUS44 KLCH 052158
MTRP92
METAR KP92 052153Z AUTO 07004KT 12/M07 A3037 RMK AO1 SLP284
T01221067





000
SAUS44 KLCH 052158
MTRP92
METAR KP92 052153Z AUTO 07004KT 12/M07 A3037 RMK AO1 SLP284
T01221067





000
SAUS44 KLCH 052056
MTRP92
METAR KP92 052053Z AUTO VRB04KT 12/M07 A3039 RMK AO1 SLP291
T01221067 58028





000
SAUS44 KLCH 051956
MTRP92
METAR KP92 051953Z AUTO VRB06KT 12/M08 A3043 RMK AO1 SLP304
T01221078





000
SAUS44 KLCH 051858
MTRP92
METAR KP92 051853Z AUTO 12/M08 A3045 RMK AO1 SLP310 T01171083





000
SAUS44 KLCH 051756
MTRP92
METAR KP92 051753Z AUTO VRB05KT 11/M07 A3047 RMK AO1 SLP318
T01111072 10117 20028 58009





000
SAUS44 KLCH 051756
MTRP92
METAR KP92 051753Z AUTO VRB05KT 11/M07 A3047 RMK AO1 SLP318
T01111072 10117 20028 58009





000
SAUS44 KLCH 051657
MTRP92
METAR KP92 051653Z AUTO 04006KT 11/M07 A3051 RMK AO1 SLP330
T01061072





000
SAUS44 KLCH 051657
MTRP92
METAR KP92 051653Z AUTO 04006KT 11/M07 A3051 RMK AO1 SLP330
T01061072





000
SAUS44 KLCH 051556
MTRP92
METAR KP92 051553Z AUTO VRB04KT 09/M03 A3052 RMK AO1 SLP333
T00941028





000
SAUS44 KLCH 051456
MTRP92
METAR KP92 051453Z AUTO VRB03KT 07/M01 A3050 RMK AO1 SLP328
T00721006 51006





000
SAUS44 KLCH 051356
MTRP92
METAR KP92 051353Z AUTO 00000KT 04/00 A3050 RMK AO1 SLP328 T00440000





000
SAUS44 KLCH 051356
MTRP92
METAR KP92 051353Z AUTO 00000KT 04/00 A3050 RMK AO1 SLP328 T00440000





000
SAUS44 KLCH 051257
MTRP92
METAR KP92 051253Z AUTO 36003KT 03/M01 A3050 RMK AO1 SLP326
T00281006





000
SAUS44 KLCH 051257
MTRP92
METAR KP92 051253Z AUTO 36003KT 03/M01 A3050 RMK AO1 SLP326
T00281006





000
SAUS44 KLCH 051157
MTRP92
METAR KP92 051153Z AUTO 35003KT 04/M01 A3048 RMK AO1 SLP322
T00391011 10050 20028 53011





000
SAUS44 KLCH 051157
MTRP92
METAR KP92 051153Z AUTO 35003KT 04/M01 A3048 RMK AO1 SLP322
T00391011 10050 20028 53011





000
SAUS44 KLCH 051056
MTRP92
METAR KP92 051053Z AUTO 34003KT 03/00 A3047 RMK AO1 SLP316 T00330000





000
SAUS44 KLCH 051056
MTRP92
METAR KP92 051053Z AUTO 34003KT 03/00 A3047 RMK AO1 SLP316 T00330000





000
SAUS44 KLCH 050956
MTRP92
METAR KP92 050953Z AUTO 00000KT 03/01 A3045 RMK AO1 SLP310 T00280011





000
SAUS44 KLCH 050901
MTRP92
METAR KP92 050853Z AUTO 00000KT 03/01 A3045 RMK AO1 SLP311 T00330011
50003





000
SAUS44 KLCH 050757
MTRP92
METAR KP92 050753Z AUTO 00000KT 04/01 A3046 RMK AO1 SLP313 T00390006





000
SAUS44 KLCH 050656
MTRP92
METAR KP92 050653Z AUTO 00000KT 03/00 A3045 RMK AO1 SLP310 T00330000





000
SAUS44 KLCH 050656
MTRP92
METAR KP92 050653Z AUTO 00000KT 03/00 A3045 RMK AO1 SLP310 T00330000





000
SAUS44 KLCH 050601
MTRP92
METAR KP92 050553Z AUTO 00000KT 05/01 A3044 RMK AO1 SLP307 T00500006
10100 20050 401280050 51008





000
SAUS44 KLCH 050601
MTRP92
METAR KP92 050553Z AUTO 00000KT 05/01 A3044 RMK AO1 SLP307 T00500006
10100 20050 401280050 51008





000
SAUS44 KLCH 050456
MTRP92
METAR KP92 050453Z AUTO 00000KT 06/01 A3044 RMK AO1 SLP307 T00560006





000
SAUS44 KLCH 050359
MTRP92
METAR KP92 050353Z AUTO 00000KT 06/01 A3043 RMK AO1 SLP305 T00560011





000
SAUS44 KLCH 050300
MTRP92
METAR KP92 050253Z AUTO 00000KT 07/01 A3042 RMK AO1 SLP299 T00670006
53021





000
SAUS44 KLCH 050300
MTRP92
METAR KP92 050253Z AUTO 00000KT 07/01 A3042 RMK AO1 SLP299 T00670006
53021





000
SAUS44 KLCH 050158
MTRP92
METAR KP92 050153Z AUTO 00000KT 08/01 A3040 RMK AO1 SLP292 T00780006





000
SAUS44 KLCH 050158
MTRP92
METAR KP92 050153Z AUTO 00000KT 08/01 A3040 RMK AO1 SLP292 T00780006





000
SAUS44 KLCH 050056
MTRP92
METAR KP92 050053Z AUTO 00000KT 09/M02 A3037 RMK AO1 SLP284
T00891022





000
SAUS44 KLCH 050056
MTRP92
METAR KP92 050053Z AUTO 00000KT 09/M02 A3037 RMK AO1 SLP284
T00891022





000
SAUS44 KLCH 042359
MTRP92
METAR KP92 042353Z AUTO 36006KT 10/M02 A3036 RMK AO1 SLP279
T01001017 10128 20100 51013





000
SAUS44 KLCH 042256
MTRP92
METAR KP92 042253Z AUTO 35009G18KT 12/M02 A3034 RMK AO1 SLP275
T01171022





000
SAUS44 KLCH 042158
MTRP92
METAR KP92 042153Z AUTO 35013G20KT 12/M02 A3033 RMK AO1 SLP271
T01221022





000
SAUS44 KLCH 042056
MTRP92
METAR KP92 042053Z AUTO 33010G18KT 13/M01 A3032 RMK AO1 SLP266
T01281011 55013





000
SAUS44 KLCH 041959
MTRP92
METAR KP92 041953Z AUTO 33012G20KT 13/M01 A3031 RMK AO1 SLP264
T01281011





000
SAUS44 KLCH 041856
MTRP92
METAR KP92 041853Z AUTO 33007G17KT 12/M01 A3032 RMK AO1 SLP267
T01221006





000
SAUS44 KLCH 041856
MTRP92
METAR KP92 041853Z AUTO 33007G17KT 12/M01 A3032 RMK AO1 SLP267
T01221006





000
SAUS44 KLCH 041756
MTRP92
METAR KP92 041753Z AUTO 31009G19KT 12/01 A3036 RMK AO1 SLP279
T01170006 10122 20056 50005 $





000
SAUS44 KLCH 041656
MTRP92
METAR KP92 041653Z AUTO 32009G16KT 12/00 A3037 RMK AO1 SLP282
T01170000





000
SAUS44 KLCH 041656
MTRP92
METAR KP92 041653Z AUTO 32009G16KT 12/00 A3037 RMK AO1 SLP282
T01170000





000
SAUS44 KLCH 041558
MTRP92
METAR KP92 041553Z AUTO 34008KT 300V360 10/02 A3036 RMK AO1 SLP281
T01000017





000
SAUS44 KLCH 041459
MTRP92
METAR KP92 041453Z AUTO 35007KT 09/03 A3034 RMK AO1 SLP274 T00890028
51023





000
SAUS44 KLCH 041459
MTRP92
METAR KP92 041453Z AUTO 35007KT 09/03 A3034 RMK AO1 SLP274 T00890028
51023





000
SAUS44 KLCH 041359
MTRP92
METAR KP92 041353Z AUTO 34004KT 07/03 A3032 RMK AO1 SLP268 T00670028





000
SAUS44 KLCH 041258
MTRP92
METAR KP92 041253Z AUTO 34004KT 06/02 A3030 RMK AO1 SLP259 T00560022





000
SAUS44 KLCH 041258
MTRP92
METAR KP92 041253Z AUTO 34004KT 06/02 A3030 RMK AO1 SLP259 T00560022





000
SAUS44 KLCH 041156
MTRP92
METAR KP92 041153Z AUTO 34006KT 06/02 A3027 RMK AO1 SLP250 T00610022
10100 20061 53018





000
SAUS44 KLCH 041156
MTRP92
METAR KP92 041153Z AUTO 34006KT 06/02 A3027 RMK AO1 SLP250 T00610022
10100 20061 53018





000
SAUS44 KLCH 041056
MTRP92
METAR KP92 041053Z AUTO VRB04KT 07/02 A3025 RMK AO1 SLP241 T00670022





000
SAUS44 KLCH 040956
MTRP92
METAR KP92 040953Z AUTO 35003KT 07/02 A3023 RMK AO1 SLP235 T00720022





000
SAUS44 KLCH 040856
MTRP92
METAR KP92 040853Z AUTO 35003KT 08/02 A3022 RMK AO1 SLP232 T00830022
51008





000
SAUS44 KLCH 040757
MTRP92
METAR KP92 040753Z AUTO 35005KT 09/03 A3022 RMK AO1 SLP231 T00890028





000
SAUS44 KLCH 040657
MTRP92
METAR KP92 040653Z AUTO 35003KT 09/04 A3020 RMK AO1 SLP227 T00890039





000
SAUS44 KLCH 040556
MTRP92
METAR KP92 040553Z AUTO 35005KT 10/03 A3019 RMK AO1 SLP224 T01000033
10156 20100 401780100 53013





000
SAUS44 KLCH 040556
MTRP92
METAR KP92 040553Z AUTO 35005KT 10/03 A3019 RMK AO1 SLP224 T01000033
10156 20100 401780100 53013





000
SAUS44 KLCH 040456
MTRP92
METAR KP92 040453Z AUTO VRB06KT 11/04 A3018 RMK AO1 SLP220 T01060039





000
SAUS44 KLCH 040357
MTRP92
METAR KP92 040353Z AUTO 34007KT 12/05 A3016 RMK AO1 SLP214 T01170050





000
SAUS44 KLCH 040258
MTRP92
METAR KP92 040253Z AUTO VRB05KT 13/05 A3016 RMK AO1 SLP211 T01280050
51024





000
SAUS44 KLCH 040157
MTRP92
METAR KP92 040153Z AUTO 34003KT 13/03 A3015 RMK AO1 SLP208 T01330028





000
SAUS44 KLCH 040056
MTRP92
METAR KP92 040053Z AUTO 34003KT 14/02 A3012 RMK AO1 SLP199 T01390017





000
SAUS44 KLCH 040056
MTRP92
METAR KP92 040053Z AUTO 34003KT 14/02 A3012 RMK AO1 SLP199 T01390017





000
SAUS44 KLCH 032356
MTRP92
METAR KP92 032353Z AUTO 35005KT 16/00 A3009 RMK AO1 SLP188 T01560000
10178 20156 53023





    US Dept of Commerce
    National Oceanic and Atmospheric Administration
    National Weather Service
    1325 East West Highway
    Silver Spring, MD 20910
    Page Author: NWS Internet Services Team
Disclaimer
Information Quality
Credits
Glossary
Privacy Policy
Freedom of Information Act (FOIA)
About Us
Career Opportunities